sensor_id;sensor_type;location;lat;lon;timestamp;temperature;humidity
68480;DHT22;55469;48.934;12.050;2023-04-01T00:00:22;11.80;91.00
68480;DHT22;55469;48.934;12.050;2023-04-01T00:02:48;11.80;91.00
68480;DHT22;55469;48.934;12.050;2023-04-01T00:05:14;11.80;91.00
68480;DHT22;55469;48.934;12.050;2023-04-01T00:07:42;11.70;91.00
68480;DHT22;55469;48.934;12.050;2023-04-01T00:10:10;11.70;91.00
68480;DHT22;55469;48.934;12.050;2023-04-01T00:12:39;11.70;91.10
68480;DHT22;55469;48.934;12.050;2023-04-01T00:15:07;11.70;91.00
68480;DHT22;55469;48.934;12.050;2023-04-01T00:17:35;11.70;91.00
68480;DHT22;55469;48.934;12.050;2023-04-01T00:20:01;11.70;91.00
68480;DHT22;55469;48.934;12.050;2023-04-01T00:22:28;11.60;91.00
68480;DHT22;55469;48.934;12.050;2023-04-01T00:24:54;11.60;91.00
68480;DHT22;55469;48.934;12.050;2023-04-01T00:27:20;11.60;91.00
68480;DHT22;55469;48.934;12.050;2023-04-01T00:29:46;11.60;91.00
68480;DHT22;55469;48.934;12.050;2023-04-01T00:32:14;11.60;91.40
68480;DHT22;55469;48.934;12.050;2023-04-01T00:34:40;11.60;91.00
68480;DHT22;55469;48.934;12.050;2023-04-01T00:37:07;11.60;91.00
68480;DHT22;55469;48.934;12.050;2023-04-01T00:39:34;11.60;91.00
68480;DHT22;55469;48.934;12.050;2023-04-01T00:42:01;11.50;91.00
68480;DHT22;55469;48.934;12.050;2023-04-01T00:44:31;11.50;91.00
68480;DHT22;55469;48.934;12.050;2023-04-01T00:47:01;11.50;91.00
68480;DHT22;55469;48.934;12.050;2023-04-01T00:49:40;11.50;91.10
68480;DHT22;55469;48.934;12.050;2023-04-01T00:52:11;11.50;91.00
68480;DHT22;55469;48.934;12.050;2023-04-01T00:54:41;11.50;91.10
68480;DHT22;55469;48.934;12.050;2023-04-01T00:57:13;11.50;91.00
68480;DHT22;55469;48.934;12.050;2023-04-01T00:59:44;11.50;91.20
68480;DHT22;55469;48.934;12.050;2023-04-01T01:02:14;11.40;90.90
68480;DHT22;55469;48.934;12.050;2023-04-01T01:04:41;11.40;91.00
68480;DHT22;55469;48.934;12.050;2023-04-01T01:10:26;11.30;90.90
68480;DHT22;55469;48.934;12.050;2023-04-01T01:13:13;11.30;91.10
68480;DHT22;55469;48.934;12.050;2023-04-01T01:16:00;11.30;91.10
68480;DHT22;55469;48.934;12.050;2023-04-01T01:18:47;11.30;91.00
68480;DHT22;55469;48.934;12.050;2023-04-01T01:27:39;11.30;91.10
68480;DHT22;55469;48.934;12.050;2023-04-01T01:33:28;11.20;91.10
68480;DHT22;55469;48.934;12.050;2023-04-01T01:36:04;11.30;91.10
68480;DHT22;55469;48.934;12.050;2023-04-01T01:38:34;11.20;91.10
68480;DHT22;55469;48.934;12.050;2023-04-01T01:41:01;11.20;91.20
68480;DHT22;55469;48.934;12.050;2023-04-01T01:43:49;11.20;91.20
68480;DHT22;55469;48.934;12.050;2023-04-01T01:46:19;11.10;91.10
68480;DHT22;55469;48.934;12.050;2023-04-01T01:48:47;11.10;91.20
68480;DHT22;55469;48.934;12.050;2023-04-01T01:51:16;11.10;91.20
68480;DHT22;55469;48.934;12.050;2023-04-01T01:53:43;11.10;91.10
68480;DHT22;55469;48.934;12.050;2023-04-01T01:56:11;11.10;91.30
68480;DHT22;55469;48.934;12.050;2023-04-01T01:59:05;11.10;91.20
68480;DHT22;55469;48.934;12.050;2023-04-01T02:01:38;11.10;91.20
68480;DHT22;55469;48.934;12.050;2023-04-01T02:04:07;11.10;91.30
68480;DHT22;55469;48.934;12.050;2023-04-01T02:06:37;11.00;91.20
68480;DHT22;55469;48.934;12.050;2023-04-01T02:09:07;11.00;91.30
68480;DHT22;55469;48.934;12.050;2023-04-01T02:11:51;11.10;91.30
68480;DHT22;55469;48.934;12.050;2023-04-01T02:14:43;11.00;91.30
68480;DHT22;55469;48.934;12.050;2023-04-01T02:17:23;11.00;91.30
68480;DHT22;55469;48.934;12.050;2023-04-01T02:20:01;11.00;91.30
68480;DHT22;55469;48.934;12.050;2023-04-01T02:22:42;11.00;91.30
68480;DHT22;55469;48.934;12.050;2023-04-01T02:25:13;11.00;91.30
68480;DHT22;55469;48.934;12.050;2023-04-01T02:27:42;11.00;91.30
68480;DHT22;55469;48.934;12.050;2023-04-01T02:30:09;10.90;91.20
68480;DHT22;55469;48.934;12.050;2023-04-01T02:32:37;10.90;91.20
68480;DHT22;55469;48.934;12.050;2023-04-01T02:35:09;11.00;91.40
68480;DHT22;55469;48.934;12.050;2023-04-01T02:37:37;10.90;91.30
68480;DHT22;55469;48.934;12.050;2023-04-01T02:40:06;10.90;91.30
68480;DHT22;55469;48.934;12.050;2023-04-01T02:42:33;10.90;91.30
68480;DHT22;55469;48.934;12.050;2023-04-01T02:44:59;10.90;91.50
68480;DHT22;55469;48.934;12.050;2023-04-01T02:47:25;10.90;91.30
68480;DHT22;55469;48.934;12.050;2023-04-01T02:49:51;10.90;91.20
68480;DHT22;55469;48.934;12.050;2023-04-01T02:52:25;10.90;91.30
68480;DHT22;55469;48.934;12.050;2023-04-01T02:54:52;10.90;91.30
68480;DHT22;55469;48.934;12.050;2023-04-01T02:57:18;10.90;91.40
68480;DHT22;55469;48.934;12.050;2023-04-01T02:59:44;10.80;91.30
68480;DHT22;55469;48.934;12.050;2023-04-01T03:02:09;10.80;91.30
68480;DHT22;55469;48.934;12.050;2023-04-01T03:04:35;10.80;91.30
68480;DHT22;55469;48.934;12.050;2023-04-01T03:07:01;10.80;91.30
68480;DHT22;55469;48.934;12.050;2023-04-01T03:09:27;10.80;91.40
68480;DHT22;55469;48.934;12.050;2023-04-01T03:11:54;10.80;91.40
68480;DHT22;55469;48.934;12.050;2023-04-01T03:14:20;10.80;91.40
68480;DHT22;55469;48.934;12.050;2023-04-01T03:16:45;10.80;91.40
68480;DHT22;55469;48.934;12.050;2023-04-01T03:19:11;10.80;91.40
68480;DHT22;55469;48.934;12.050;2023-04-01T03:21:37;10.80;91.30
68480;DHT22;55469;48.934;12.050;2023-04-01T03:24:03;10.70;91.40
68480;DHT22;55469;48.934;12.050;2023-04-01T03:26:29;10.70;91.40
68480;DHT22;55469;48.934;12.050;2023-04-01T03:28:55;10.70;91.40
68480;DHT22;55469;48.934;12.050;2023-04-01T03:31:22;10.70;91.40
68480;DHT22;55469;48.934;12.050;2023-04-01T03:33:47;10.70;91.40
68480;DHT22;55469;48.934;12.050;2023-04-01T03:36:13;10.60;91.40
68480;DHT22;55469;48.934;12.050;2023-04-01T03:38:43;10.70;91.40
68480;DHT22;55469;48.934;12.050;2023-04-01T03:41:15;10.60;91.50
68480;DHT22;55469;48.934;12.050;2023-04-01T03:43:41;10.60;91.50
68480;DHT22;55469;48.934;12.050;2023-04-01T03:46:07;10.60;91.50
68480;DHT22;55469;48.934;12.050;2023-04-01T03:48:33;10.60;91.50
68480;DHT22;55469;48.934;12.050;2023-04-01T03:50:59;10.60;91.60
68480;DHT22;55469;48.934;12.050;2023-04-01T03:53:24;10.50;91.50
68480;DHT22;55469;48.934;12.050;2023-04-01T03:55:50;10.50;91.50
68480;DHT22;55469;48.934;12.050;2023-04-01T03:58:19;10.50;91.50
68480;DHT22;55469;48.934;12.050;2023-04-01T04:00:45;10.60;91.50
68480;DHT22;55469;48.934;12.050;2023-04-01T04:03:11;10.50;91.50
68480;DHT22;55469;48.934;12.050;2023-04-01T04:05:37;10.50;91.60
68480;DHT22;55469;48.934;12.050;2023-04-01T04:08:03;10.40;91.60
68480;DHT22;55469;48.934;12.050;2023-04-01T04:10:29;10.40;91.60
68480;DHT22;55469;48.934;12.050;2023-04-01T04:12:55;10.40;91.70
68480;DHT22;55469;48.934;12.050;2023-04-01T04:15:21;10.40;91.70
68480;DHT22;55469;48.934;12.050;2023-04-01T04:17:47;10.40;91.60
68480;DHT22;55469;48.934;12.050;2023-04-01T04:20:13;10.40;91.70
68480;DHT22;55469;48.934;12.050;2023-04-01T04:22:39;10.30;91.60
68480;DHT22;55469;48.934;12.050;2023-04-01T04:25:05;10.30;91.70
68480;DHT22;55469;48.934;12.050;2023-04-01T04:27:32;10.30;91.70
68480;DHT22;55469;48.934;12.050;2023-04-01T04:29:58;10.30;91.70
68480;DHT22;55469;48.934;12.050;2023-04-01T04:32:23;10.30;91.70
68480;DHT22;55469;48.934;12.050;2023-04-01T04:34:49;10.30;91.70
68480;DHT22;55469;48.934;12.050;2023-04-01T04:37:15;10.30;91.70
68480;DHT22;55469;48.934;12.050;2023-04-01T04:39:41;10.30;91.80
68480;DHT22;55469;48.934;12.050;2023-04-01T04:42:06;10.30;91.70
68480;DHT22;55469;48.934;12.050;2023-04-01T04:44:32;10.30;91.80
68480;DHT22;55469;48.934;12.050;2023-04-01T04:46:58;10.30;91.70
68480;DHT22;55469;48.934;12.050;2023-04-01T04:49:23;10.20;91.80
68480;DHT22;55469;48.934;12.050;2023-04-01T04:51:49;10.20;91.80
68480;DHT22;55469;48.934;12.050;2023-04-01T04:54:15;10.20;91.80
68480;DHT22;55469;48.934;12.050;2023-04-01T04:56:41;10.20;91.80
68480;DHT22;55469;48.934;12.050;2023-04-01T04:59:07;10.20;91.70
68480;DHT22;55469;48.934;12.050;2023-04-01T05:01:33;10.20;91.80
68480;DHT22;55469;48.934;12.050;2023-04-01T05:03:59;10.20;91.80
68480;DHT22;55469;48.934;12.050;2023-04-01T05:06:25;10.20;91.80
68480;DHT22;55469;48.934;12.050;2023-04-01T05:08:55;10.20;91.70
68480;DHT22;55469;48.934;12.050;2023-04-01T05:11:21;10.20;91.70
68480;DHT22;55469;48.934;12.050;2023-04-01T05:13:47;10.20;91.70
68480;DHT22;55469;48.934;12.050;2023-04-01T05:16:16;10.20;91.70
68480;DHT22;55469;48.934;12.050;2023-04-01T05:18:43;10.20;91.70
68480;DHT22;55469;48.934;12.050;2023-04-01T05:21:11;10.10;91.70
68480;DHT22;55469;48.934;12.050;2023-04-01T05:23:37;10.20;91.70
68480;DHT22;55469;48.934;12.050;2023-04-01T05:26:05;10.20;91.70
68480;DHT22;55469;48.934;12.050;2023-04-01T05:28:31;10.20;91.80
68480;DHT22;55469;48.934;12.050;2023-04-01T05:30:59;10.20;91.70
68480;DHT22;55469;48.934;12.050;2023-04-01T05:33:26;10.10;91.70
68480;DHT22;55469;48.934;12.050;2023-04-01T05:35:53;10.10;91.70
68480;DHT22;55469;48.934;12.050;2023-04-01T05:38:19;10.10;91.60
68480;DHT22;55469;48.934;12.050;2023-04-01T05:40:45;10.10;91.70
68480;DHT22;55469;48.934;12.050;2023-04-01T05:43:11;10.10;91.70
68480;DHT22;55469;48.934;12.050;2023-04-01T05:45:37;10.10;91.70
68480;DHT22;55469;48.934;12.050;2023-04-01T05:48:03;10.10;91.80
68480;DHT22;55469;48.934;12.050;2023-04-01T05:50:29;10.10;91.70
68480;DHT22;55469;48.934;12.050;2023-04-01T05:52:55;10.20;91.60
68480;DHT22;55469;48.934;12.050;2023-04-01T05:55:21;10.20;91.70
68480;DHT22;55469;48.934;12.050;2023-04-01T05:57:47;10.10;91.60
68480;DHT22;55469;48.934;12.050;2023-04-01T06:00:15;10.10;91.60
68480;DHT22;55469;48.934;12.050;2023-04-01T06:02:42;10.20;91.60
68480;DHT22;55469;48.934;12.050;2023-04-01T06:07:41;10.20;91.40
68480;DHT22;55469;48.934;12.050;2023-04-01T06:10:15;10.10;91.50
68480;DHT22;55469;48.934;12.050;2023-04-01T06:13:01;10.20;91.50
68480;DHT22;55469;48.934;12.050;2023-04-01T06:18:42;10.20;91.40
68480;DHT22;55469;48.934;12.050;2023-04-01T06:24:18;10.20;91.30
68480;DHT22;55469;48.934;12.050;2023-04-01T06:27:32;10.20;91.40
68480;DHT22;55469;48.934;12.050;2023-04-01T06:39:26;10.20;91.20
68480;DHT22;55469;48.934;12.050;2023-04-01T06:42:11;10.20;91.30
68480;DHT22;55469;48.934;12.050;2023-04-01T06:47:55;10.20;91.20
68480;DHT22;55469;48.934;12.050;2023-04-01T06:50:30;10.20;91.10
68480;DHT22;55469;48.934;12.050;2023-04-01T06:53:21;10.20;91.10
68480;DHT22;55469;48.934;12.050;2023-04-01T06:56:05;10.20;91.10
68480;DHT22;55469;48.934;12.050;2023-04-01T07:01:09;10.20;91.10
68480;DHT22;55469;48.934;12.050;2023-04-01T07:03:47;10.20;91.10
68480;DHT22;55469;48.934;12.050;2023-04-01T07:06:32;10.20;91.00
68480;DHT22;55469;48.934;12.050;2023-04-01T07:09:05;10.20;91.00
68480;DHT22;55469;48.934;12.050;2023-04-01T07:11:37;10.20;90.90
68480;DHT22;55469;48.934;12.050;2023-04-01T07:14:13;10.20;90.90
68480;DHT22;55469;48.934;12.050;2023-04-01T07:19:39;10.20;90.90
68480;DHT22;55469;48.934;12.050;2023-04-01T07:22:50;10.20;90.80
68480;DHT22;55469;48.934;12.050;2023-04-01T07:28:13;10.20;90.80
68480;DHT22;55469;48.934;12.050;2023-04-01T07:34:03;10.20;90.70
68480;DHT22;55469;48.934;12.050;2023-04-01T07:51:02;10.20;90.60
68480;DHT22;55469;48.934;12.050;2023-04-01T07:56:09;10.30;90.70
68480;DHT22;55469;48.934;12.050;2023-04-01T07:58:43;10.30;90.60
68480;DHT22;55469;48.934;12.050;2023-04-01T08:07:17;10.40;90.60
68480;DHT22;55469;48.934;12.050;2023-04-01T08:10:25;10.40;90.50
68480;DHT22;55469;48.934;12.050;2023-04-01T08:21:42;10.40;90.40
68480;DHT22;55469;48.934;12.050;2023-04-01T08:24:27;10.40;90.50
68480;DHT22;55469;48.934;12.050;2023-04-01T08:26:57;10.40;90.50
68480;DHT22;55469;48.934;12.050;2023-04-01T08:30:15;10.40;90.40
68480;DHT22;55469;48.934;12.050;2023-04-01T08:32:49;10.50;90.20
68480;DHT22;55469;48.934;12.050;2023-04-01T08:38:18;10.50;90.40
68480;DHT22;55469;48.934;12.050;2023-04-01T08:59:56;11.40;88.90
68480;DHT22;55469;48.934;12.050;2023-04-01T09:21:04;11.70;88.20
68480;DHT22;55469;48.934;12.050;2023-04-01T09:35:58;12.10;86.60
68480;DHT22;55469;48.934;12.050;2023-04-01T09:38:30;12.10;86.50
68480;DHT22;55469;48.934;12.050;2023-04-01T09:41:36;12.10;86.90
68480;DHT22;55469;48.934;12.050;2023-04-01T09:44:37;12.30;86.20
68480;DHT22;55469;48.934;12.050;2023-04-01T09:59:24;12.50;86.10
68480;DHT22;55469;48.934;12.050;2023-04-01T10:02:50;12.50;85.90
68480;DHT22;55469;48.934;12.050;2023-04-01T10:23:23;12.80;85.30
68480;DHT22;55469;48.934;12.050;2023-04-01T10:29:02;12.80;85.20
68480;DHT22;55469;48.934;12.050;2023-04-01T10:31:53;12.90;85.30
68480;DHT22;55469;48.934;12.050;2023-04-01T10:38:16;13.00;85.10
68480;DHT22;55469;48.934;12.050;2023-04-01T10:40:58;13.00;85.00
68480;DHT22;55469;48.934;12.050;2023-04-01T11:07:52;13.40;84.20
68480;DHT22;55469;48.934;12.050;2023-04-01T11:13:43;13.40;84.20
68480;DHT22;55469;48.934;12.050;2023-04-01T11:24:55;13.50;84.00
68480;DHT22;55469;48.934;12.050;2023-04-01T11:27:48;13.60;83.90
68480;DHT22;55469;48.934;12.050;2023-04-01T11:30:34;13.60;83.80
68480;DHT22;55469;48.934;12.050;2023-04-01T11:33:19;13.60;83.80
68480;DHT22;55469;48.934;12.050;2023-04-01T11:42:29;13.70;83.90
68480;DHT22;55469;48.934;12.050;2023-04-01T11:51:00;13.80;84.00
68480;DHT22;55469;48.934;12.050;2023-04-01T12:15:08;13.80;84.50
68480;DHT22;55469;48.934;12.050;2023-04-01T12:17:56;13.80;84.50
68480;DHT22;55469;48.934;12.050;2023-04-01T12:27:19;13.90;84.50
68480;DHT22;55469;48.934;12.050;2023-04-01T12:44:54;14.10;84.10
68480;DHT22;55469;48.934;12.050;2023-04-01T12:55:59;14.10;84.20
68480;DHT22;55469;48.934;12.050;2023-04-01T13:16:40;14.50;85.50
68480;DHT22;55469;48.934;12.050;2023-04-01T13:21:55;14.70;85.70
68480;DHT22;55469;48.934;12.050;2023-04-01T13:54:49;14.50;85.70
68480;DHT22;55469;48.934;12.050;2023-04-01T13:57:14;14.50;84.40
68480;DHT22;55469;48.934;12.050;2023-04-01T14:00:17;14.50;84.40
68480;DHT22;55469;48.934;12.050;2023-04-01T14:11:35;14.60;84.40
68480;DHT22;55469;48.934;12.050;2023-04-01T14:14:42;14.60;84.40
68480;DHT22;55469;48.934;12.050;2023-04-01T14:32:36;14.60;84.30
68480;DHT22;55469;48.934;12.050;2023-04-01T14:35:31;14.70;84.40
68480;DHT22;55469;48.934;12.050;2023-04-01T14:41:20;14.70;84.20
68480;DHT22;55469;48.934;12.050;2023-04-01T14:44:05;14.70;84.10
68480;DHT22;55469;48.934;12.050;2023-04-01T14:49:53;14.80;84.00
68480;DHT22;55469;48.934;12.050;2023-04-01T14:52:32;14.80;84.10
68480;DHT22;55469;48.934;12.050;2023-04-01T14:55:11;14.80;84.00
68480;DHT22;55469;48.934;12.050;2023-04-01T15:04:04;14.70;84.00
68480;DHT22;55469;48.934;12.050;2023-04-01T15:12:39;14.70;84.30
68480;DHT22;55469;48.934;12.050;2023-04-01T15:21:22;14.70;84.40
68480;DHT22;55469;48.934;12.050;2023-04-01T15:35:56;14.70;84.30
68480;DHT22;55469;48.934;12.050;2023-04-01T15:46:58;14.80;84.20
68480;DHT22;55469;48.934;12.050;2023-04-01T15:49:42;14.70;84.20
68480;DHT22;55469;48.934;12.050;2023-04-01T15:52:24;14.80;84.20
68480;DHT22;55469;48.934;12.050;2023-04-01T16:01:18;14.80;84.30
68480;DHT22;55469;48.934;12.050;2023-04-01T16:04:28;14.80;84.40
68480;DHT22;55469;48.934;12.050;2023-04-01T16:21:42;14.70;84.50
68480;DHT22;55469;48.934;12.050;2023-04-01T16:24:17;14.90;85.10
68480;DHT22;55469;48.934;12.050;2023-04-01T16:26:51;14.90;85.10
68480;DHT22;55469;48.934;12.050;2023-04-01T16:29:33;14.90;85.10
68480;DHT22;55469;48.934;12.050;2023-04-01T16:32:41;14.90;85.00
68480;DHT22;55469;48.934;12.050;2023-04-01T16:43:35;15.00;85.60
68480;DHT22;55469;48.934;12.050;2023-04-01T16:46:23;15.00;85.20
68480;DHT22;55469;48.934;12.050;2023-04-01T16:51:54;15.00;85.80
68480;DHT22;55469;48.934;12.050;2023-04-01T16:57:43;15.00;85.20
68480;DHT22;55469;48.934;12.050;2023-04-01T17:03:13;15.10;85.20
68480;DHT22;55469;48.934;12.050;2023-04-01T17:06:03;15.00;85.80
68480;DHT22;55469;48.934;12.050;2023-04-01T17:09:01;15.00;86.90
68480;DHT22;55469;48.934;12.050;2023-04-01T17:11:39;15.10;87.20
68480;DHT22;55469;48.934;12.050;2023-04-01T17:14:25;15.10;87.30
68480;DHT22;55469;48.934;12.050;2023-04-01T17:23:27;15.20;86.20
68480;DHT22;55469;48.934;12.050;2023-04-01T17:26:00;15.20;86.10
68480;DHT22;55469;48.934;12.050;2023-04-01T17:31:36;15.10;86.40
68480;DHT22;55469;48.934;12.050;2023-04-01T17:43:18;15.00;86.30
68480;DHT22;55469;48.934;12.050;2023-04-01T17:45:56;15.10;86.30
68480;DHT22;55469;48.934;12.050;2023-04-01T17:48:47;15.00;86.40
68480;DHT22;55469;48.934;12.050;2023-04-01T17:51:23;15.10;86.10
68480;DHT22;55469;48.934;12.050;2023-04-01T18:05:13;15.10;86.00
68480;DHT22;55469;48.934;12.050;2023-04-01T18:08:08;15.10;86.00
68480;DHT22;55469;48.934;12.050;2023-04-01T18:10:49;15.20;87.40
68480;DHT22;55469;48.934;12.050;2023-04-01T18:13:34;15.20;87.40
68480;DHT22;55469;48.934;12.050;2023-04-01T18:23:03;15.30;86.60
68480;DHT22;55469;48.934;12.050;2023-04-01T18:25:38;15.30;86.20
68480;DHT22;55469;48.934;12.050;2023-04-01T18:31:20;15.30;85.70
68480;DHT22;55469;48.934;12.050;2023-04-01T18:36:49;15.20;85.70
68480;DHT22;55469;48.934;12.050;2023-04-01T18:39:39;15.20;85.30
68480;DHT22;55469;48.934;12.050;2023-04-01T18:42:28;15.20;85.50
68480;DHT22;55469;48.934;12.050;2023-04-01T18:45:27;15.20;85.40
68480;DHT22;55469;48.934;12.050;2023-04-01T18:48:17;15.30;85.30
68480;DHT22;55469;48.934;12.050;2023-04-01T18:50:58;15.20;85.30
68480;DHT22;55469;48.934;12.050;2023-04-01T18:58:48;15.20;85.30
68480;DHT22;55469;48.934;12.050;2023-04-01T19:01:43;15.30;85.30
68480;DHT22;55469;48.934;12.050;2023-04-01T19:04:23;15.30;85.30
68480;DHT22;55469;48.934;12.050;2023-04-01T19:06:59;15.40;85.40
68480;DHT22;55469;48.934;12.050;2023-04-01T19:09:45;15.30;85.40
68480;DHT22;55469;48.934;12.050;2023-04-01T19:12:23;15.40;85.40
68480;DHT22;55469;48.934;12.050;2023-04-01T19:18:42;15.40;85.40
68480;DHT22;55469;48.934;12.050;2023-04-01T19:21:26;15.40;85.40
68480;DHT22;55469;48.934;12.050;2023-04-01T19:38:36;15.10;86.10
68480;DHT22;55469;48.934;12.050;2023-04-01T19:44:12;14.80;87.00
68480;DHT22;55469;48.934;12.050;2023-04-01T19:46:49;14.80;87.40
68480;DHT22;55469;48.934;12.050;2023-04-01T19:49:32;14.70;87.40
68480;DHT22;55469;48.934;12.050;2023-04-01T19:54:58;14.50;87.80
68480;DHT22;55469;48.934;12.050;2023-04-01T19:57:59;14.50;87.80
68480;DHT22;55469;48.934;12.050;2023-04-01T20:00:43;14.40;87.90
68480;DHT22;55469;48.934;12.050;2023-04-01T20:03:30;14.40;88.20
68480;DHT22;55469;48.934;12.050;2023-04-01T20:06:06;14.40;88.30
68480;DHT22;55469;48.934;12.050;2023-04-01T20:11:58;14.30;88.40
68480;DHT22;55469;48.934;12.050;2023-04-01T20:14:47;14.20;88.50
68480;DHT22;55469;48.934;12.050;2023-04-01T20:22:38;14.10;88.60
68480;DHT22;55469;48.934;12.050;2023-04-01T20:31:36;14.10;88.80
68480;DHT22;55469;48.934;12.050;2023-04-01T20:36:31;14.00;88.90
68480;DHT22;55469;48.934;12.050;2023-04-01T20:50:56;13.90;89.40
68480;DHT22;55469;48.934;12.050;2023-04-01T20:56:23;13.90;89.40
68480;DHT22;55469;48.934;12.050;2023-04-01T21:11:38;13.60;90.10
68480;DHT22;55469;48.934;12.050;2023-04-01T21:17:25;13.40;90.10
68480;DHT22;55469;48.934;12.050;2023-04-01T21:20:00;13.40;90.20
68480;DHT22;55469;48.934;12.050;2023-04-01T21:25:26;13.40;90.20
68480;DHT22;55469;48.934;12.050;2023-04-01T21:31:29;13.30;90.20
68480;DHT22;55469;48.934;12.050;2023-04-01T21:39:50;13.20;90.30
68480;DHT22;55469;48.934;12.050;2023-04-01T21:45:34;13.20;90.40
68480;DHT22;55469;48.934;12.050;2023-04-01T22:00:32;13.00;90.60
68480;DHT22;55469;48.934;12.050;2023-04-01T22:03:21;13.00;90.60
68480;DHT22;55469;48.934;12.050;2023-04-01T22:08:45;12.90;90.60
68480;DHT22;55469;48.934;12.050;2023-04-01T22:11:23;12.90;90.60
68480;DHT22;55469;48.934;12.050;2023-04-01T22:20:55;12.80;90.60
68480;DHT22;55469;48.934;12.050;2023-04-01T22:32:08;12.70;90.70
68480;DHT22;55469;48.934;12.050;2023-04-01T22:38:00;12.70;90.80
68480;DHT22;55469;48.934;12.050;2023-04-01T22:40:45;12.60;90.80
68480;DHT22;55469;48.934;12.050;2023-04-01T22:43:27;12.60;90.90
68480;DHT22;55469;48.934;12.050;2023-04-01T22:46:23;12.60;90.90
68480;DHT22;55469;48.934;12.050;2023-04-01T22:49:41;12.50;90.90
68480;DHT22;55469;48.934;12.050;2023-04-01T22:52:56;12.50;91.00
68480;DHT22;55469;48.934;12.050;2023-04-01T22:55:40;12.50;91.00
68480;DHT22;55469;48.934;12.050;2023-04-01T22:58:12;12.50;91.00
68480;DHT22;55469;48.934;12.050;2023-04-01T23:00:50;12.50;91.00
68480;DHT22;55469;48.934;12.050;2023-04-01T23:03:28;12.50;91.00
68480;DHT22;55469;48.934;12.050;2023-04-01T23:05:58;12.40;91.00
68480;DHT22;55469;48.934;12.050;2023-04-01T23:09:03;12.40;90.90
68480;DHT22;55469;48.934;12.050;2023-04-01T23:11:51;12.40;91.00
68480;DHT22;55469;48.934;12.050;2023-04-01T23:17:15;12.30;91.10
68480;DHT22;55469;48.934;12.050;2023-04-01T23:20:06;12.40;91.00
68480;DHT22;55469;48.934;12.050;2023-04-01T23:22:38;12.30;91.00
68480;DHT22;55469;48.934;12.050;2023-04-01T23:28:18;12.30;91.10
68480;DHT22;55469;48.934;12.050;2023-04-01T23:30:52;12.20;91.00
68480;DHT22;55469;48.934;12.050;2023-04-01T23:35:49;12.20;91.00
68480;DHT22;55469;48.934;12.050;2023-04-01T23:38:36;12.30;91.00
68480;DHT22;55469;48.934;12.050;2023-04-01T23:41:05;12.20;91.00
68480;DHT22;55469;48.934;12.050;2023-04-01T23:43:37;12.20;91.10
68480;DHT22;55469;48.934;12.050;2023-04-01T23:46:06;12.10;91.10
68480;DHT22;55469;48.934;12.050;2023-04-01T23:48:38;12.10;91.00
68480;DHT22;55469;48.934;12.050;2023-04-01T23:51:27;12.10;91.10
68480;DHT22;55469;48.934;12.050;2023-04-01T23:54:39;12.20;91.00
68480;DHT22;55469;48.934;12.050;2023-04-01T23:57:17;12.10;91.00
